createdAt,value
2022-12-11T00:00:28.853Z,0.60
2022-12-11T00:02:56.815Z,0.60
2022-12-11T00:05:24.299Z,0.70
2022-12-11T00:07:51.466Z,0.60
2022-12-11T00:10:18.688Z,0.60
2022-12-11T00:12:45.884Z,0.70
2022-12-11T00:15:13.318Z,0.70
2022-12-11T00:17:40.583Z,0.70
2022-12-11T00:20:08.471Z,0.70
2022-12-11T00:22:36.261Z,0.70
2022-12-11T00:25:03.576Z,0.90
2022-12-11T00:27:30.705Z,0.70
2022-12-11T00:29:59.803Z,0.60
2022-12-11T00:32:28.500Z,0.60
2022-12-11T00:34:56.041Z,0.60
2022-12-11T00:37:23.389Z,0.70
2022-12-11T00:39:50.730Z,0.70
2022-12-11T00:42:17.930Z,0.60
2022-12-11T00:48:19.517Z,0.70
2022-12-11T00:50:48.393Z,0.70
2022-12-11T00:53:15.840Z,0.70
2022-12-11T00:55:45.320Z,0.60
2022-12-11T00:58:13.252Z,0.50
2022-12-11T01:00:41.942Z,0.50
2022-12-11T01:03:12.293Z,0.60
2022-12-11T01:05:39.895Z,0.70
2022-12-11T01:08:07.542Z,0.70
2022-12-11T01:10:35.257Z,0.70
2022-12-11T01:13:07.191Z,0.60
2022-12-11T01:15:41.571Z,0.70
2022-12-11T01:18:11.161Z,0.60
2022-12-11T01:20:40.309Z,0.50
2022-12-11T01:23:07.392Z,0.60
2022-12-11T01:25:38.353Z,0.60
2022-12-11T01:28:06.450Z,0.60
2022-12-11T01:30:33.870Z,0.70
2022-12-11T01:33:01.349Z,0.60
2022-12-11T01:35:29.088Z,0.50
2022-12-11T01:37:56.559Z,0.50
2022-12-11T01:40:23.851Z,0.50
2022-12-11T01:42:51.156Z,0.60
2022-12-11T01:45:40.306Z,0.60
2022-12-11T01:48:14.147Z,0.60
2022-12-11T01:51:02.862Z,0.60
2022-12-11T01:53:36.410Z,0.60
2022-12-11T01:56:04.610Z,0.60
2022-12-11T01:58:37.625Z,0.60
2022-12-11T02:01:06.805Z,0.60
2022-12-11T02:03:34.060Z,0.60
2022-12-11T02:06:02.594Z,0.60
2022-12-11T02:08:30.013Z,0.50
2022-12-11T02:11:20.842Z,0.50
2022-12-11T02:14:03.321Z,0.50
2022-12-11T02:16:40.358Z,0.50
2022-12-11T02:19:33.007Z,0.50
2022-12-11T02:22:03.712Z,0.60
2022-12-11T02:25:12.402Z,0.50
2022-12-11T02:27:45.975Z,0.50
2022-12-11T02:30:17.263Z,0.40
2022-12-11T02:32:59.179Z,0.40
2022-12-11T02:35:34.861Z,0.50
2022-12-11T02:38:10.372Z,0.60
2022-12-11T02:40:40.362Z,0.50
2022-12-11T02:43:11.846Z,0.40
2022-12-11T02:45:41.327Z,0.50
2022-12-11T02:48:34.907Z,0.60
2022-12-11T02:51:03.402Z,0.60
2022-12-11T02:53:33.331Z,0.50
2022-12-11T02:56:31.041Z,0.40
2022-12-11T02:59:07.352Z,0.40
2022-12-11T03:01:34.616Z,0.40
2022-12-11T03:04:01.949Z,0.30
2022-12-11T03:06:43.005Z,0.30
2022-12-11T03:09:10.592Z,0.30
2022-12-11T03:11:37.798Z,0.50
2022-12-11T03:14:05.649Z,0.50
2022-12-11T03:16:38.547Z,0.50
2022-12-11T03:19:24.693Z,0.50
2022-12-11T03:22:03.813Z,0.50
2022-12-11T03:24:44.566Z,0.30
2022-12-11T03:27:21.894Z,0.60
2022-12-11T03:30:02.529Z,0.30
2022-12-11T03:32:36.427Z,0.40
2022-12-11T03:35:14.698Z,0.30
2022-12-11T03:37:43.992Z,0.20
2022-12-11T03:40:16.418Z,0.20
2022-12-11T03:42:46.131Z,0.10
2022-12-11T03:45:14.925Z,0.10
2022-12-11T03:47:42.642Z,0.20
2022-12-11T03:50:13.281Z,0.10
2022-12-11T03:52:45.851Z,0.10
2022-12-11T03:55:16.850Z,0.30
2022-12-11T03:57:44.720Z,0.20
2022-12-11T04:00:15.493Z,0.30
2022-12-11T04:02:42.858Z,0.10
2022-12-11T04:05:20.879Z,0.10
2022-12-11T04:07:48.102Z,0.10
2022-12-11T04:10:15.364Z,0.10
2022-12-11T04:12:42.482Z,0.20
2022-12-11T04:15:10.048Z,0.10
2022-12-11T04:17:56.163Z,0.10
2022-12-11T04:20:41.792Z,0.10
2022-12-11T04:23:33.707Z,0.10
2022-12-11T04:26:07.892Z,0.10
2022-12-11T04:28:36.533Z,0.10
2022-12-11T04:31:05.174Z,0.10
2022-12-11T04:33:32.509Z,0.20
2022-12-11T04:36:01.123Z,0.20
2022-12-11T04:38:29.711Z,0.20
2022-12-11T04:41:00.036Z,0.10
2022-12-11T04:43:28.291Z,0.00
2022-12-11T04:46:05.387Z,0.10
2022-12-11T04:48:32.659Z,0.20
2022-12-11T04:51:00.244Z,0.20
2022-12-11T04:53:28.540Z,0.30
2022-12-11T04:55:55.890Z,0.40
2022-12-11T04:58:24.874Z,0.40
2022-12-11T05:00:52.627Z,0.10
2022-12-11T05:03:20.502Z,0.00
2022-12-11T05:05:52.778Z,0.10
2022-12-11T05:08:21.938Z,0.10
2022-12-11T05:10:59.645Z,0.00
2022-12-11T05:13:28.611Z,0.00
2022-12-11T05:16:25.029Z,0.10
2022-12-11T05:18:54.872Z,0.00
2022-12-11T05:21:22.006Z,0.00
2022-12-11T05:23:50.328Z,0.10
2022-12-11T05:26:20.031Z,0.00
2022-12-11T05:28:53.421Z,-0.10
2022-12-11T05:31:26.016Z,0.10
2022-12-11T05:33:54.384Z,0.00
2022-12-11T05:36:30.533Z,-0.40
2022-12-11T05:38:59.791Z,0.00
2022-12-11T05:41:30.690Z,0.00
2022-12-11T05:43:58.289Z,-0.10
2022-12-11T05:46:28.510Z,-0.10
2022-12-11T05:48:58.900Z,0.00
2022-12-11T05:51:26.745Z,-0.10
2022-12-11T05:53:55.333Z,-0.10
2022-12-11T05:56:25.194Z,-0.10
2022-12-11T05:58:53.043Z,-0.20
2022-12-11T06:01:29.923Z,-0.20
2022-12-11T06:03:58.298Z,-0.30
2022-12-11T06:06:27.113Z,-0.20
2022-12-11T06:08:56.165Z,-0.20
2022-12-11T06:11:25.152Z,-0.20
2022-12-11T06:13:56.009Z,-0.20
2022-12-11T06:16:25.835Z,-0.10
2022-12-11T06:18:57.111Z,0.10
2022-12-11T06:21:30.731Z,0.00
2022-12-11T06:23:59.683Z,0.00
2022-12-11T06:26:27.981Z,0.00
2022-12-11T06:28:55.158Z,0.00
2022-12-11T06:31:22.948Z,0.00
2022-12-11T06:33:50.410Z,-0.10
2022-12-11T06:36:20.646Z,-0.10
2022-12-11T06:41:31.433Z,-0.20
2022-12-11T06:43:58.612Z,-0.30
2022-12-11T06:46:25.813Z,-0.20
2022-12-11T06:48:53.187Z,-0.20
2022-12-11T06:51:23.125Z,0.00
2022-12-11T06:53:57.206Z,0.00
2022-12-11T06:56:26.663Z,-0.10
2022-12-11T06:58:54.160Z,-0.10
2022-12-11T07:01:24.755Z,-0.10
2022-12-11T07:03:56.838Z,-0.10
2022-12-11T07:06:25.361Z,-0.10
2022-12-11T07:08:52.912Z,-0.20
2022-12-11T07:11:21.250Z,-0.20
2022-12-11T07:13:48.928Z,-0.20
2022-12-11T07:16:18.157Z,-0.10
2022-12-11T07:18:49.937Z,-0.20
2022-12-11T07:21:20.194Z,-0.10
2022-12-11T07:23:48.854Z,-0.10
2022-12-11T07:26:18.783Z,-0.10
2022-12-11T07:28:46.106Z,-0.20
2022-12-11T07:31:16.144Z,-0.20
2022-12-11T07:33:43.458Z,-0.10
2022-12-11T07:36:13.101Z,-0.10
2022-12-11T07:38:41.208Z,0.00
2022-12-11T07:41:11.926Z,0.00
2022-12-11T07:43:39.801Z,-0.10
2022-12-11T07:46:22.247Z,0.00
2022-12-11T07:48:49.823Z,-0.10
2022-12-11T07:51:18.173Z,-0.10
2022-12-11T07:53:46.718Z,-0.10
2022-12-11T07:56:14.688Z,0.00
2022-12-11T07:58:42.154Z,-0.10
2022-12-11T08:01:17.791Z,-0.10
2022-12-11T08:03:45.544Z,0.00
2022-12-11T08:06:13.193Z,0.00
2022-12-11T08:08:41.843Z,0.00
2022-12-11T08:11:12.052Z,-0.40
2022-12-11T08:13:40.204Z,0.00
2022-12-11T08:16:13.699Z,-0.10
2022-12-11T08:18:42.159Z,0.00
2022-12-11T08:21:13.650Z,0.00
2022-12-11T08:23:41.096Z,0.00
2022-12-11T08:26:11.515Z,-0.20
2022-12-11T08:28:38.848Z,-0.20
2022-12-11T08:31:08.285Z,-0.10
2022-12-11T08:33:36.827Z,-0.10
2022-12-11T08:36:08.891Z,-0.10
2022-12-11T08:38:36.791Z,0.00
2022-12-11T08:41:30.866Z,-0.10
2022-12-11T08:44:00.489Z,-0.20
2022-12-11T08:46:30.866Z,-0.20
2022-12-11T08:48:58.662Z,-0.10
2022-12-11T08:51:28.979Z,-0.10
2022-12-11T08:53:59.073Z,0.00
2022-12-11T08:56:27.527Z,-0.10
2022-12-11T08:58:55.152Z,-0.10
2022-12-11T09:01:24.951Z,-0.20
2022-12-11T09:03:53.768Z,-0.20
2022-12-11T09:06:22.865Z,0.10
2022-12-11T09:08:52.955Z,-0.10
2022-12-11T09:11:26.569Z,-0.10
2022-12-11T09:13:54.685Z,0.00
2022-12-11T09:16:24.161Z,0.00
2022-12-11T09:18:53.833Z,0.20
2022-12-11T09:21:25.170Z,-0.10
2022-12-11T09:24:01.685Z,-0.10
2022-12-11T09:26:30.491Z,-0.10
2022-12-11T09:28:58.794Z,-0.10
2022-12-11T09:31:32.143Z,-0.10
2022-12-11T09:34:03.827Z,-0.10
2022-12-11T09:36:31.553Z,-0.10
2022-12-11T09:39:06.709Z,-0.20
2022-12-11T09:41:34.139Z,-0.20
2022-12-11T09:44:11.161Z,-0.20
2022-12-11T09:46:40.377Z,-0.20
2022-12-11T09:49:24.223Z,-0.20
2022-12-11T09:52:11.619Z,-0.30
2022-12-11T09:54:45.343Z,-0.40
2022-12-11T09:57:24.613Z,-0.30
2022-12-11T10:00:12.636Z,-0.30
2022-12-11T10:03:01.305Z,-0.30
2022-12-11T10:06:02.759Z,-0.20
2022-12-11T10:08:55.709Z,-0.20
2022-12-11T10:11:28.658Z,-0.10
2022-12-11T10:14:23.899Z,-0.20
2022-12-11T10:16:52.684Z,-0.20
2022-12-11T10:19:29.287Z,-0.10
2022-12-11T10:21:58.085Z,-0.10
2022-12-11T10:25:07.654Z,-0.20
2022-12-11T10:27:21.546Z,-0.20
2022-12-11T10:30:12.658Z,-0.10
2022-12-11T10:33:05.105Z,-0.20
2022-12-11T10:35:49.114Z,-0.20
2022-12-11T10:38:36.985Z,-0.20
2022-12-11T10:41:12.245Z,-0.20
2022-12-11T10:43:42.610Z,-0.10
2022-12-11T10:46:17.831Z,-0.20
2022-12-11T10:48:49.277Z,-0.20
2022-12-11T10:51:18.111Z,-0.30
2022-12-11T10:53:54.284Z,-0.40
2022-12-11T10:56:33.842Z,-0.20
2022-12-11T10:59:01.635Z,-0.30
2022-12-11T11:01:32.067Z,0.00
2022-12-11T11:04:19.374Z,-0.30
2022-12-11T11:06:46.670Z,-0.30
2022-12-11T11:09:35.781Z,-0.40
2022-12-11T11:12:07.931Z,-0.50
2022-12-11T11:14:35.391Z,-0.40
2022-12-11T11:17:02.550Z,-0.40
2022-12-11T11:19:37.132Z,-0.40
2022-12-11T11:22:15.087Z,-0.30
2022-12-11T11:24:46.045Z,-0.40
2022-12-11T11:27:33.436Z,-0.50
2022-12-11T11:30:05.168Z,-0.50
2022-12-11T11:32:41.297Z,-0.50
2022-12-11T11:35:17.210Z,-0.60
2022-12-11T11:38:12.523Z,-0.60
2022-12-11T11:40:49.241Z,-0.50
2022-12-11T11:43:21.426Z,-0.40
2022-12-11T11:45:54.105Z,-0.50
2022-12-11T11:48:36.647Z,-0.50
2022-12-11T11:51:33.748Z,-0.40
2022-12-11T11:54:08.880Z,-0.40
2022-12-11T11:56:38.099Z,-0.40
2022-12-11T11:59:17.241Z,-0.60
2022-12-11T12:01:44.730Z,-0.50
2022-12-11T12:04:12.626Z,-0.40
2022-12-11T12:06:57.469Z,-0.60
2022-12-11T12:09:50.139Z,-0.60
2022-12-11T12:12:41.352Z,-0.50
2022-12-11T12:15:29.399Z,-0.50
2022-12-11T12:18:18.543Z,-0.50
2022-12-11T12:21:17.585Z,-0.50
2022-12-11T12:24:03.149Z,-0.50
2022-12-11T12:26:37.360Z,-0.70
2022-12-11T12:29:22.353Z,-0.60
2022-12-11T12:32:01.033Z,-0.60
2022-12-11T12:34:49.428Z,-0.50
2022-12-11T12:37:25.127Z,-0.50
2022-12-11T12:40:30.529Z,-0.40
2022-12-11T12:43:06.332Z,-0.60
2022-12-11T12:45:46.367Z,-0.60
2022-12-11T12:48:13.491Z,-0.60
2022-12-11T12:50:47.157Z,-0.50
2022-12-11T12:53:18.712Z,-0.50
2022-12-11T12:55:48.187Z,-0.50
2022-12-11T12:58:47.735Z,-0.60
2022-12-11T13:01:24.441Z,-0.60
2022-12-11T13:04:04.206Z,-0.70
2022-12-11T13:06:41.977Z,-0.60
2022-12-11T13:09:27.159Z,-0.70
2022-12-11T13:11:59.908Z,-0.70
2022-12-11T13:14:32.703Z,-0.70
2022-12-11T13:17:24.624Z,-0.70
2022-12-11T13:20:09.974Z,-0.60
2022-12-11T13:22:52.111Z,-0.70
2022-12-11T13:25:28.460Z,-0.70
2022-12-11T13:28:07.423Z,-0.80
2022-12-11T13:30:35.327Z,-0.50
2022-12-11T13:33:14.493Z,-0.80
2022-12-11T13:35:41.878Z,-0.60
2022-12-11T13:38:17.665Z,-0.60
2022-12-11T13:40:47.026Z,-0.70
2022-12-11T13:43:27.110Z,-0.60
2022-12-11T13:45:57.439Z,-0.40
2022-12-11T13:48:32.537Z,-0.60
2022-12-11T13:51:00.518Z,-0.60
2022-12-11T13:53:28.187Z,-0.60
2022-12-11T13:56:03.758Z,-0.40
2022-12-11T13:58:35.264Z,-0.70
2022-12-11T14:01:22.971Z,-0.70
2022-12-11T14:04:09.408Z,-0.70
2022-12-11T14:06:39.355Z,-0.80
2022-12-11T14:09:08.381Z,-0.70
2022-12-11T14:11:38.694Z,-0.80
2022-12-11T14:14:18.050Z,-0.50
2022-12-11T14:16:49.362Z,-0.70
2022-12-11T14:19:20.052Z,-0.70
2022-12-11T14:22:08.057Z,-0.60
2022-12-11T14:24:35.657Z,-0.60
2022-12-11T14:27:04.896Z,-0.60
2022-12-11T14:29:33.947Z,-0.70
2022-12-11T14:32:06.848Z,-0.60
2022-12-11T14:34:45.555Z,-0.70
2022-12-11T14:37:16.094Z,-0.70
2022-12-11T14:40:14.584Z,-0.70
2022-12-11T14:42:48.072Z,-0.80
2022-12-11T14:45:30.055Z,-0.80
2022-12-11T14:47:58.682Z,-0.80
2022-12-11T14:50:37.719Z,-0.70
2022-12-11T14:53:15.381Z,-0.90
2022-12-11T14:55:42.834Z,-0.90
2022-12-11T14:58:21.487Z,-0.80
2022-12-11T15:01:04.357Z,-0.90
2022-12-11T15:03:35.222Z,-0.90
2022-12-11T15:06:03.835Z,-0.80
2022-12-11T15:08:34.096Z,-0.80
2022-12-11T15:11:06.078Z,-0.80
2022-12-11T15:13:35.384Z,-0.70
2022-12-11T15:16:03.335Z,-0.80
2022-12-11T15:18:33.642Z,-0.70
2022-12-11T15:21:04.326Z,-0.90
2022-12-11T15:23:31.474Z,-0.80
2022-12-11T15:26:02.069Z,-0.90
2022-12-11T15:28:35.185Z,-1.00
2022-12-11T15:31:07.957Z,-0.90
2022-12-11T15:33:46.018Z,-0.90
2022-12-11T15:36:31.897Z,-0.90
2022-12-11T15:38:59.304Z,-1.00
2022-12-11T15:41:26.885Z,-1.00
2022-12-11T15:43:58.974Z,-0.90
2022-12-11T15:46:28.364Z,-0.90
2022-12-11T15:48:57.580Z,-1.10
2022-12-11T15:51:25.460Z,-1.10
2022-12-11T15:53:52.660Z,-1.10
2022-12-11T15:56:19.905Z,-1.00
2022-12-11T15:58:49.019Z,-0.70
2022-12-11T16:01:16.269Z,-1.00
2022-12-11T16:03:43.437Z,-1.00
2022-12-11T16:06:13.728Z,-1.00
2022-12-11T16:08:40.858Z,-1.00
2022-12-11T16:11:08.051Z,-1.00
2022-12-11T16:13:35.320Z,-1.00
2022-12-11T16:16:02.693Z,-1.00
2022-12-11T16:18:29.914Z,-1.10
2022-12-11T16:20:56.986Z,-1.10
2022-12-11T16:23:24.375Z,-1.00
2022-12-11T16:25:52.098Z,-1.00
2022-12-11T16:28:21.316Z,-1.10
2022-12-11T16:30:49.101Z,-1.10
2022-12-11T16:33:16.609Z,-1.00
2022-12-11T16:35:43.755Z,-1.10
2022-12-11T16:38:11.388Z,-1.10
2022-12-11T16:40:38.758Z,-0.50
2022-12-11T16:43:06.478Z,-1.10
2022-12-11T16:45:34.458Z,-0.70
2022-12-11T16:48:05.721Z,-1.00
2022-12-11T16:50:32.959Z,-1.10
2022-12-11T16:53:00.075Z,-0.80
2022-12-11T16:55:27.383Z,-1.10
2022-12-11T16:57:55.355Z,-1.20
2022-12-11T17:00:22.755Z,-1.20
2022-12-11T17:02:50.304Z,-1.20
2022-12-11T17:05:17.609Z,-1.10
2022-12-11T17:07:44.767Z,-1.20
2022-12-11T17:10:12.353Z,-1.10
2022-12-11T17:12:39.635Z,-1.10
2022-12-11T17:15:07.347Z,-1.10
2022-12-11T17:17:34.568Z,-1.10
2022-12-11T17:20:01.743Z,-1.10
2022-12-11T17:22:29.781Z,-1.10
2022-12-11T17:24:56.987Z,-1.10
2022-12-11T17:27:24.189Z,-1.20
2022-12-11T17:29:51.396Z,-1.10
2022-12-11T17:32:19.016Z,-1.10
2022-12-11T17:34:48.308Z,-1.10
2022-12-11T17:37:15.461Z,-1.10
2022-12-11T17:39:42.645Z,-0.80
2022-12-11T17:42:09.783Z,-1.20
2022-12-11T17:44:37.532Z,-1.10
2022-12-11T17:47:10.843Z,-1.10
2022-12-11T17:49:41.965Z,-1.10
2022-12-11T17:52:09.273Z,-1.20
2022-12-11T17:54:36.596Z,-1.20
2022-12-11T17:57:03.982Z,-1.10
2022-12-11T17:59:31.612Z,-1.10
2022-12-11T18:01:59.328Z,-1.20
2022-12-11T18:04:26.880Z,-1.10
2022-12-11T18:06:54.070Z,-1.10
2022-12-11T18:09:21.255Z,-1.10
2022-12-11T18:11:48.530Z,-1.10
2022-12-11T18:14:17.645Z,-1.10
2022-12-11T18:16:44.895Z,-1.10
2022-12-11T18:19:12.528Z,-1.20
2022-12-11T18:21:43.880Z,-1.10
2022-12-11T18:24:11.618Z,-1.10
2022-12-11T18:26:38.977Z,-1.20
2022-12-11T18:29:06.890Z,-1.20
2022-12-11T18:31:38.887Z,-1.20
2022-12-11T18:34:10.043Z,-1.30
2022-12-11T18:36:37.162Z,-1.30
2022-12-11T18:39:04.350Z,-1.30
2022-12-11T18:41:31.572Z,-1.30
2022-12-11T18:44:05.193Z,-1.20
2022-12-11T18:46:35.401Z,-1.30
2022-12-11T18:49:02.607Z,-1.30
2022-12-11T18:51:29.948Z,-1.20
2022-12-11T18:53:57.257Z,-1.30
2022-12-11T18:56:24.531Z,-1.40
2022-12-11T18:58:52.133Z,-1.30
2022-12-11T19:01:26.500Z,-1.30
2022-12-11T19:04:02.044Z,-1.00
2022-12-11T19:06:33.284Z,-1.40
2022-12-11T19:09:00.714Z,-1.40
2022-12-11T19:11:30.120Z,-1.30
2022-12-11T19:13:58.041Z,-1.40
2022-12-11T19:16:31.058Z,-1.40
2022-12-11T19:18:59.319Z,-1.10
2022-12-11T19:21:27.359Z,-1.30
2022-12-11T19:23:54.748Z,-1.40
2022-12-11T19:26:23.878Z,-1.30
2022-12-11T19:28:52.976Z,-1.40
2022-12-11T19:31:22.545Z,-0.70
2022-12-11T19:33:50.146Z,-1.40
2022-12-11T19:36:22.345Z,-1.50
2022-12-11T19:38:49.665Z,-1.50
2022-12-11T19:41:21.068Z,-1.30
2022-12-11T19:43:49.111Z,-1.40
2022-12-11T19:46:17.226Z,-1.40
2022-12-11T19:48:44.654Z,-1.40
2022-12-11T19:51:33.904Z,-1.30
2022-12-11T19:54:04.627Z,-1.40
2022-12-11T19:56:32.529Z,-1.50
2022-12-11T19:59:02.079Z,-1.50
2022-12-11T20:01:32.184Z,-1.50
2022-12-11T20:04:02.382Z,-1.40
2022-12-11T20:06:32.109Z,-1.40
2022-12-11T20:09:01.400Z,-1.20
2022-12-11T20:11:28.862Z,-1.20
2022-12-11T20:13:56.715Z,-0.90
2022-12-11T20:16:39.584Z,-1.40
2022-12-11T20:19:11.681Z,-1.40
2022-12-11T20:21:38.968Z,-1.30
2022-12-11T20:24:06.485Z,-1.40
2022-12-11T20:26:36.571Z,-1.40
2022-12-11T20:29:07.409Z,-1.50
2022-12-11T20:31:36.602Z,-1.40
2022-12-11T20:34:04.815Z,-1.50
2022-12-11T20:36:32.333Z,-1.30
2022-12-11T20:39:01.101Z,-1.30
2022-12-11T20:41:28.395Z,-1.40
2022-12-11T20:43:55.853Z,-1.40
2022-12-11T20:46:25.349Z,-1.30
2022-12-11T20:48:53.151Z,-1.30
2022-12-11T20:51:25.815Z,-1.40
2022-12-11T20:54:01.398Z,-1.30
2022-12-11T20:56:30.886Z,-1.30
2022-12-11T20:58:59.516Z,-1.10
2022-12-11T21:01:28.726Z,-1.40
2022-12-11T21:03:56.481Z,-1.40
2022-12-11T21:06:32.631Z,-1.10
2022-12-11T21:09:02.213Z,-1.40
2022-12-11T21:11:29.509Z,-1.30
2022-12-11T21:13:56.688Z,-1.30
2022-12-11T21:16:24.832Z,-1.30
2022-12-11T21:18:54.653Z,-1.40
2022-12-11T21:21:21.931Z,-1.50
2022-12-11T21:23:49.501Z,-1.40
2022-12-11T21:26:16.955Z,-1.30
2022-12-11T21:28:44.207Z,-1.40
2022-12-11T21:31:14.882Z,-1.40
2022-12-11T21:33:42.408Z,-0.80
2022-12-11T21:36:11.866Z,-1.40
2022-12-11T21:38:39.786Z,-1.30
2022-12-11T21:41:19.355Z,-1.40
2022-12-11T21:45:25.553Z,-1.40
2022-12-11T21:46:35.896Z,-1.20
2022-12-11T21:49:03.693Z,-1.30
2022-12-11T21:51:37.681Z,-1.00
2022-12-11T21:54:07.103Z,-1.30
2022-12-11T21:56:34.410Z,-0.30
2022-12-11T21:59:01.814Z,-1.40
2022-12-11T22:01:33.734Z,-1.30
2022-12-11T22:04:02.498Z,-1.10
2022-12-11T22:06:29.594Z,-1.00
2022-12-11T22:08:56.933Z,-1.20
2022-12-11T22:11:27.074Z,-1.50
2022-12-11T22:13:54.425Z,-0.90
2022-12-11T22:16:21.985Z,-1.50
2022-12-11T22:18:49.111Z,-1.50
2022-12-11T22:21:17.176Z,-1.00
2022-12-11T22:23:44.768Z,-1.30
2022-12-11T22:26:17.034Z,-1.40
2022-12-11T22:28:44.344Z,-1.50
2022-12-11T22:31:13.504Z,-1.20
2022-12-11T22:33:40.830Z,-1.40
2022-12-11T22:36:08.334Z,-1.40
2022-12-11T22:38:35.563Z,-1.50
2022-12-11T22:41:09.666Z,-1.40
2022-12-11T22:43:36.914Z,-1.50
2022-12-11T22:46:04.146Z,-1.50
2022-12-11T22:48:31.405Z,-1.50
2022-12-11T22:50:58.565Z,-1.50
2022-12-11T22:53:26.131Z,-1.20
2022-12-11T22:55:53.605Z,-1.40
2022-12-11T22:58:21.993Z,-1.40
2022-12-11T23:00:49.534Z,-1.40
2022-12-11T23:03:18.480Z,-1.40
2022-12-11T23:05:45.598Z,-1.40
2022-12-11T23:08:12.770Z,-1.20
2022-12-11T23:10:41.237Z,-1.30
2022-12-11T23:13:08.406Z,-1.30
2022-12-11T23:15:35.731Z,-1.30
2022-12-11T23:18:02.888Z,-1.30
2022-12-11T23:20:30.313Z,-1.40
2022-12-11T23:22:57.974Z,-1.40
2022-12-11T23:25:25.076Z,-1.20
2022-12-11T23:27:52.312Z,-1.20
2022-12-11T23:30:19.508Z,-1.30
2022-12-11T23:32:46.599Z,-1.30
2022-12-11T23:35:13.939Z,-1.30
2022-12-11T23:37:41.553Z,-1.30
2022-12-11T23:40:09.211Z,-1.30
2022-12-11T23:42:36.310Z,-1.20
2022-12-11T23:45:03.566Z,-1.20
2022-12-11T23:47:30.687Z,-1.20
2022-12-11T23:49:57.879Z,-1.40
2022-12-11T23:52:26.754Z,-1.30
2022-12-11T23:54:55.520Z,-1.30
2022-12-11T23:57:23.523Z,-1.30
2022-12-11T23:59:50.631Z,-1.30
